Time;durP1;ratioP1;P1;durP2;ratioP2;P2;SDS_P1;SDS_P2;PMS_P1;PMS_P2;Temp;Humidity;BMP_temperature;BMP_pressure;BME280_temperature;BME280_humidity;BME280_pressure;Samples;Min_cycle;Max_cycle;Signal;HPM_P1;HPM_P2
2023/10/21 00:01:10;;;;;;;8.00;3.30;;;;;;;12.48;100.00;98242.75;5072575;28;20500;-62
2023/10/21 00:03:58;;;;;;;8.60;3.03;;;;;;;12.49;100.00;98246.28;5059630;28;20536;-61
2023/10/21 00:06:46;;;;;;;8.00;3.10;;;;;;;12.49;100.00;98241.59;5059478;28;20052;-61
2023/10/21 00:09:34;;;;;;;9.43;3.40;;;;;;;12.49;100.00;98243.56;5060079;28;20084;-61
2023/10/21 00:12:22;;;;;;;8.52;3.20;;;;;;;12.46;100.00;98250.50;5064842;28;20123;-61
2023/10/21 00:15:10;;;;;;;7.35;3.20;;;;;;;12.44;100.00;98249.25;5075906;28;20062;-64
2023/10/21 00:17:58;;;;;;;14.38;3.58;;;;;;;12.43;100.00;98251.16;5075088;28;20519;-64
2023/10/21 00:20:47;;;;;;;9.70;3.65;;;;;;;12.43;100.00;98258.56;5074927;28;20059;-63
2023/10/21 00:23:35;;;;;;;8.48;3.30;;;;;;;12.43;100.00;98255.84;5061412;28;20493;-63
2023/10/21 00:26:25;;;;;;;11.15;4.10;;;;;;;12.41;100.00;98267.13;5063935;28;20452;-63
2023/10/21 00:29:16;;;;;;;11.38;3.45;;;;;;;12.42;100.00;98268.69;5064964;28;20080;-64
2023/10/21 00:32:04;;;;;;;7.05;3.67;;;;;;;12.42;100.00;98273.38;5061899;28;20056;-63
2023/10/21 00:34:52;;;;;;;8.10;3.35;;;;;;;12.42;100.00;98284.28;5061733;28;20109;-64
2023/10/21 00:37:40;;;;;;;12.75;3.33;;;;;;;12.40;100.00;98289.31;5062790;28;20153;-63
2023/10/21 00:40:28;;;;;;;6.72;3.17;;;;;;;12.41;100.00;98304.53;5060453;28;20053;-64
2023/10/21 00:43:34;;;;;;;11.80;3.40;;;;;;;12.40;100.00;98303.75;5074409;28;20064;-64
2023/10/21 00:46:26;;;;;;;7.00;2.85;;;;;;;12.38;100.00;98311.47;5040197;28;20413;-63
2023/10/21 00:49:14;;;;;;;11.45;3.20;;;;;;;12.40;100.00;98308.41;5055649;28;20049;-64
2023/10/21 00:52:04;;;;;;;11.48;3.53;;;;;;;12.40;100.00;98313.88;5059483;28;20036;-64
2023/10/21 00:54:53;;;;;;;6.63;3.08;;;;;;;12.40;100.00;98320.13;5060757;28;20522;-63
2023/10/21 00:57:41;;;;;;;6.45;2.90;;;;;;;12.41;100.00;98326.38;5074436;28;20063;-64
2023/10/21 01:00:29;;;;;;;5.97;2.67;;;;;;;12.40;100.00;98333.78;5075241;28;20191;-64
2023/10/21 01:03:17;;;;;;;7.80;3.05;;;;;;;12.41;100.00;98332.66;5054765;28;20147;-64
2023/10/21 01:06:06;;;;;;;8.38;3.10;;;;;;;12.45;100.00;98332.75;5042619;28;20049;-63
2023/10/21 01:08:54;;;;;;;10.88;3.28;;;;;;;12.44;100.00;98344.84;5074371;28;20412;-63
2023/10/21 01:11:42;;;;;;;7.47;3.20;;;;;;;12.45;100.00;98340.94;5060876;28;20040;-62
2023/10/21 01:14:31;;;;;;;7.10;3.00;;;;;;;12.44;100.00;98347.56;5039615;28;20136;-63
2023/10/21 01:17:19;;;;;;;8.93;2.80;;;;;;;12.43;100.00;98348.69;5050261;28;20048;-64
2023/10/21 01:20:09;;;;;;;5.82;3.03;;;;;;;12.43;100.00;98346.75;5074849;28;20056;-66
2023/10/21 01:22:57;;;;;;;9.38;3.08;;;;;;;12.43;100.00;98346.75;5057755;28;20049;-64
2023/10/21 01:25:45;;;;;;;10.25;3.30;;;;;;;12.42;100.00;98358.03;5047291;28;20048;-64
2023/10/21 01:28:34;;;;;;;9.10;3.30;;;;;;;12.40;100.00;98357.56;5068719;28;20103;-65
2023/10/21 01:31:22;;;;;;;7.68;2.97;;;;;;;12.39;100.00;98361.41;5060998;28;20044;-64
2023/10/21 01:34:10;;;;;;;9.63;3.03;;;;;;;12.38;100.00;98357.91;5058619;28;20573;-64
2023/10/21 01:36:59;;;;;;;12.82;3.13;;;;;;;12.38;100.00;98357.09;5060424;28;20377;-64
2023/10/21 01:39:47;;;;;;;6.57;3.00;;;;;;;12.39;100.00;98361.41;5075479;28;20061;-65
2023/10/21 01:42:35;;;;;;;6.55;2.85;;;;;;;12.40;100.00;98358.34;5073246;28;20086;-65
2023/10/21 01:45:23;;;;;;;8.80;3.22;;;;;;;12.39;100.00;98361.41;5050984;28;20473;-63
2023/10/21 01:48:11;;;;;;;7.68;2.88;;;;;;;12.41;100.00;98364.59;5041693;28;20041;-64
2023/10/21 01:51:04;;;;;;;7.93;2.78;;;;;;;12.41;100.00;98364.59;5058705;28;20041;-59
2023/10/21 01:53:53;;;;;;;6.78;3.08;;;;;;;12.40;100.00;98368.50;5071237;28;20416;-61
2023/10/21 01:56:41;;;;;;;7.50;3.03;;;;;;;12.38;100.00;98366.09;5052420;28;20060;-62
2023/10/21 01:59:29;;;;;;;5.93;3.03;;;;;;;12.38;100.00;98370.75;5088823;28;20037;-59
2023/10/21 02:02:17;;;;;;;8.48;3.20;;;;;;;12.38;100.00;98376.22;5075000;28;20041;-60
2023/10/21 02:05:06;;;;;;;7.85;2.88;;;;;;;12.35;100.00;98374.97;5073286;28;20051;-64
2023/10/21 02:07:54;;;;;;;6.35;2.67;;;;;;;12.33;100.00;98374.50;5064994;28;20111;-63
2023/10/21 02:10:42;;;;;;;5.63;2.90;;;;;;;12.32;100.00;98378.38;5063976;28;20041;-64
2023/10/21 02:13:30;;;;;;;7.40;2.85;;;;;;;12.29;100.00;98382.59;5051218;28;20042;-64
2023/10/21 02:16:19;;;;;;;6.45;3.30;;;;;;;12.29;100.00;98387.22;5060690;28;20131;-64
2023/10/21 02:19:07;;;;;;;9.88;3.47;;;;;;;12.30;100.00;98391.56;5046199;28;20051;-64
2023/10/21 02:21:55;;;;;;;10.07;2.92;;;;;;;12.31;100.00;98398.63;5073908;28;20043;-64
2023/10/21 02:24:43;;;;;;;6.28;2.97;;;;;;;12.31;100.00;98393.97;5072308;28;20137;-65
2023/10/21 02:27:31;;;;;;;9.23;3.20;;;;;;;12.34;100.00;98396.03;5053875;28;20053;-64
2023/10/21 02:30:19;;;;;;;6.32;2.78;;;;;;;12.36;100.00;98407.41;5025764;28;20041;-64
2023/10/21 02:33:08;;;;;;;7.82;3.33;;;;;;;12.38;100.00;98409.78;5052915;28;20068;-63
2023/10/21 02:35:56;;;;;;;7.50;3.10;;;;;;;12.35;100.00;98408.53;5070727;28;20044;-64
2023/10/21 02:38:44;;;;;;;7.80;3.10;;;;;;;12.36;100.00;98415.59;5058326;28;20104;-63
2023/10/21 02:41:32;;;;;;;7.38;2.75;;;;;;;12.36;100.00;98409.31;5060055;28;20047;-61
2023/10/21 02:44:20;;;;;;;5.78;3.10;;;;;;;12.38;100.00;98420.72;5052785;28;20060;-64
2023/10/21 02:47:08;;;;;;;7.88;3.38;;;;;;;12.39;100.00;98435.16;5068233;28;20131;-62
2023/10/21 02:49:56;;;;;;;6.38;2.97;;;;;;;12.39;100.00;98438.69;5045023;28;20044;-63
2023/10/21 02:52:44;;;;;;;4.93;2.70;;;;;;;12.38;100.00;98437.09;5058040;28;20072;-63
2023/10/21 02:55:32;;;;;;;5.32;2.90;;;;;;;12.35;100.00;98433.09;5070077;28;20045;-62
2023/10/21 02:58:20;;;;;;;14.85;3.20;;;;;;;12.34;100.00;98438.94;5058405;28;20048;-64
2023/10/21 03:01:16;;;;;;;6.47;2.83;;;;;;;12.32;100.00;98441.97;5061423;28;20044;-63
2023/10/21 03:04:04;;;;;;;;;;;;;;;12.32;100.00;98436.53;5059724;28;20526;-63
2023/10/21 03:06:52;;;;;;;8.07;3.38;;;;;;;12.30;100.00;98446.97;5071656;28;19920;-62
2023/10/21 03:09:42;;;;;;;6.28;2.72;;;;;;;12.30;100.00;98446.97;5053741;28;20041;-63
2023/10/21 03:12:30;;;;;;;6.95;3.20;;;;;;;12.30;100.00;98446.19;5052931;28;20075;-64
2023/10/21 03:15:18;;;;;;;7.93;3.03;;;;;;;12.30;100.00;98446.19;5072988;28;20516;-64
2023/10/21 03:18:07;;;;;;;6.30;2.60;;;;;;;12.30;100.00;98451.66;5059268;28;20052;-64
2023/10/21 03:20:55;;;;;;;5.57;2.90;;;;;;;12.31;100.00;98455.97;5072864;28;20071;-64
2023/10/21 03:23:44;;;;;;;5.78;2.60;;;;;;;12.29;100.00;98456.31;5072494;28;20075;-64
2023/10/21 03:26:32;;;;;;;6.53;2.72;;;;;;;12.30;100.00;98446.97;5072415;28;20048;-65
2023/10/21 03:29:20;;;;;;;4.47;2.70;;;;;;;12.29;100.00;98461.78;5072196;28;20200;-64
2023/10/21 03:32:11;;;;;;;7.55;2.80;;;;;;;12.28;100.00;98465.63;5072675;28;20079;-64
2023/10/21 03:34:59;;;;;;;4.25;2.85;;;;;;;12.27;100.00;98472.22;5073065;28;20466;-62
2023/10/21 03:37:47;;;;;;;14.35;3.05;;;;;;;12.28;100.00;98476.53;5072310;28;20052;-65
2023/10/21 03:40:35;;;;;;;6.38;2.67;;;;;;;12.28;100.00;98482.00;5072649;28;20122;-64
2023/10/21 03:43:23;;;;;;;5.68;2.67;;;;;;;12.27;100.00;98483.16;5070431;28;20094;-64
2023/10/21 03:46:14;;;;;;;4.88;2.42;;;;;;;12.28;100.00;98489.41;5044646;28;20045;-63
2023/10/21 03:49:03;;;;;;;6.60;2.55;;;;;;;12.28;100.00;98492.94;5045487;28;20044;-65
2023/10/21 03:51:51;;;;;;;5.50;2.65;;;;;;;12.29;100.00;98502.72;5044903;28;20041;-62
2023/10/21 03:54:39;;;;;;;8.95;2.92;;;;;;;12.30;100.00;98500.78;5077220;28;20058;-64
2023/10/21 03:57:27;;;;;;;6.40;2.35;;;;;;;12.31;100.00;98502.38;5078460;28;20509;-63
2023/10/21 04:00:16;;;;;;;5.47;2.55;;;;;;;12.30;100.00;98507.03;5080019;28;20497;-63
2023/10/21 04:03:05;;;;;;;8.48;3.13;;;;;;;12.30;100.00;98511.72;5076491;28;20044;-63
2023/10/21 04:05:54;;;;;;;7.05;2.30;;;;;;;12.32;100.00;98520.38;5076643;28;20059;-65
2023/10/21 04:08:42;;;;;;;6.93;2.55;;;;;;;12.31;100.00;98527.78;5078367;28;20411;-63
2023/10/21 04:11:30;;;;;;;5.65;2.63;;;;;;;12.31;100.00;98533.22;5064250;28;20045;-63
2023/10/21 04:14:18;;;;;;;4.68;2.25;;;;;;;12.33;100.00;98535.63;5078165;28;20052;-63
2023/10/21 04:17:06;;;;;;;7.72;2.58;;;;;;;12.31;100.00;98546.88;5064987;28;20052;-63
2023/10/21 04:19:54;;;;;;;6.65;2.70;;;;;;;12.28;100.00;98544.00;5078313;28;20048;-63
2023/10/21 04:22:42;;;;;;;8.45;2.80;;;;;;;12.26;100.00;98554.47;5077039;28;20045;-63
2023/10/21 04:25:30;;;;;;;6.65;2.72;;;;;;;12.23;100.00;98561.41;5063656;28;20044;-62
2023/10/21 04:28:19;;;;;;;7.30;2.58;;;;;;;12.24;100.00;98552.09;5061197;28;20043;-63
2023/10/21 04:31:07;;;;;;;9.70;2.88;;;;;;;12.22;100.00;98565.28;5077299;28;20129;-65
2023/10/21 04:33:55;;;;;;;9.70;2.72;;;;;;;12.22;100.00;98570.75;5063361;28;20052;-63
2023/10/21 04:36:43;;;;;;;10.00;3.08;;;;;;;12.25;100.00;98580.97;5078191;28;20167;-66
2023/10/21 04:39:32;;;;;;;7.97;2.80;;;;;;;12.27;100.00;98577.94;5078513;28;20489;-65
2023/10/21 04:42:20;;;;;;;8.13;2.30;;;;;;;12.29;100.00;98581.91;5073141;28;20048;-65
2023/10/21 04:45:09;;;;;;;6.88;2.60;;;;;;;12.29;100.00;98587.38;5060259;28;20052;-65
2023/10/21 04:47:58;;;;;;;6.47;3.03;;;;;;;12.30;100.00;98588.97;5078936;28;20106;-63
2023/10/21 04:50:47;;;;;;;6.55;2.60;;;;;;;12.32;100.00;98581.25;5078164;28;20420;-64
2023/10/21 04:53:35;;;;;;;10.85;3.20;;;;;;;12.34;100.00;98589.09;5076934;28;20198;-64
2023/10/21 04:56:25;;;;;;;8.25;3.08;;;;;;;12.34;100.00;98589.91;5075590;28;20052;-64
2023/10/21 04:59:13;;;;;;;7.47;2.78;;;;;;;12.35;100.00;98596.94;5060975;28;20049;-66
2023/10/21 05:02:01;;;;;;;5.80;2.47;;;;;;;12.35;100.00;98596.16;5058997;28;20129;-66
2023/10/21 05:04:52;;;;;;;6.22;2.72;;;;;;;12.32;100.00;98608.53;5055225;28;20206;-63
2023/10/21 05:07:40;;;;;;;6.60;2.80;;;;;;;12.33;100.00;98609.34;5055506;28;20052;-63
2023/10/21 05:10:28;;;;;;;8.73;2.95;;;;;;;12.31;100.00;98614.34;5046930;28;20048;-65
2023/10/21 05:13:16;;;;;;;11.82;2.83;;;;;;;12.30;100.00;98618.22;5061111;28;20502;-65
2023/10/21 05:16:04;;;;;;;4.03;2.25;;;;;;;12.28;100.00;98621.25;5075424;28;20045;-64
2023/10/21 05:18:52;;;;;;;8.30;3.00;;;;;;;12.27;100.00;98627.88;5075073;28;20555;-64
2023/10/21 05:21:40;;;;;;;6.57;2.70;;;;;;;12.25;100.00;98646.50;5074901;28;20134;-64
2023/10/21 05:24:28;;;;;;;6.82;2.75;;;;;;;12.23;100.00;98643.31;5074366;28;20048;-64
2023/10/21 05:27:16;;;;;;;5.43;2.75;;;;;;;12.23;100.00;98643.31;5074591;28;20045;-63
2023/10/21 05:30:04;;;;;;;7.15;2.35;;;;;;;12.20;100.00;98654.91;5074497;28;20515;-65
2023/10/21 05:32:53;;;;;;;6.05;2.78;;;;;;;12.22;100.00;98663.56;5042534;28;20402;-64
2023/10/21 05:35:41;;;;;;;7.72;2.38;;;;;;;12.22;100.00;98662.75;5057758;28;20201;-66
2023/10/21 05:38:29;;;;;;;10.50;2.83;;;;;;;12.22;100.00;98669.03;5060166;28;20402;-65
2023/10/21 05:41:17;;;;;;;8.10;2.72;;;;;;;12.21;100.00;98661.94;5060842;28;20052;-66
2023/10/21 05:44:05;;;;;;;7.53;2.70;;;;;;;12.22;100.00;98670.94;5074159;28;20057;-65
2023/10/21 05:46:53;;;;;;;9.32;2.65;;;;;;;12.22;100.00;98679.13;5059215;28;20500;-65
2023/10/21 05:49:41;;;;;;;11.52;3.30;;;;;;;12.22;100.00;98684.59;5073989;28;20135;-67
2023/10/21 05:52:29;;;;;;;9.75;2.53;;;;;;;12.23;100.00;98691.66;5059463;28;20041;-67
2023/10/21 05:55:17;;;;;;;9.90;3.20;;;;;;;12.22;100.00;98693.59;5075108;28;20055;-65
2023/10/21 05:58:05;;;;;;;7.57;2.78;;;;;;;12.23;100.00;98702.56;5060952;28;20047;-66
2023/10/21 06:00:53;;;;;;;8.93;2.65;;;;;;;12.23;100.00;98703.38;5070103;28;20048;-64
2023/10/21 06:03:41;;;;;;;9.73;2.85;;;;;;;12.21;100.00;98702.91;5075473;28;20044;-66
2023/10/21 06:06:30;;;;;;;7.57;2.88;;;;;;;12.21;100.00;98713.81;5075825;28;20059;-64
2023/10/21 06:09:18;;;;;;;7.78;2.95;;;;;;;12.25;100.00;98728.41;5076364;28;20074;-63
2023/10/21 06:12:07;;;;;;;9.90;3.35;;;;;;;12.26;100.00;98723.75;5074539;28;20052;-63
2023/10/21 06:14:55;;;;;;;7.78;2.90;;;;;;;12.27;100.00;98730.84;5077944;28;20052;-65
2023/10/21 06:17:45;;;;;;;9.35;3.45;;;;;;;12.29;100.00;98732.09;5082447;28;20049;-60
2023/10/21 06:20:33;;;;;;;9.43;3.28;;;;;;;12.30;100.00;98736.41;5069902;28;20108;-58
2023/10/21 06:23:22;;;;;;;12.88;2.97;;;;;;;12.31;100.00;98735.31;4379561;28;10000676;-65
2023/10/21 06:26:11;;;;;;;15.70;3.42;;;;;;;12.33;100.00;98729.50;5069897;28;20099;-65
2023/10/21 06:28:59;;;;;;;7.18;2.90;;;;;;;12.34;100.00;98734.63;5068608;28;20125;-66
2023/10/21 06:31:47;;;;;;;8.52;3.10;;;;;;;12.36;100.00;98746.03;5056528;28;20066;-64
2023/10/21 06:34:35;;;;;;;7.70;3.10;;;;;;;12.37;100.00;98744.09;5072181;28;20048;-65
2023/10/21 06:37:24;;;;;;;8.95;3.38;;;;;;;12.36;100.00;98745.22;5044001;28;20071;-66
2023/10/21 06:40:12;;;;;;;10.93;3.20;;;;;;;12.38;100.00;98753.06;5059522;28;20055;-64
2023/10/21 06:43:14;;;;;;;8.73;3.15;;;;;;;12.40;100.00;98756.28;5061564;28;20052;-65
2023/10/21 06:46:02;;;;;;;11.52;3.30;;;;;;;12.41;100.00;98763.34;5074133;28;20044;-64
2023/10/21 06:48:50;;;;;;;7.30;3.00;;;;;;;12.41;100.00;98768.78;5072179;28;20435;-64
2023/10/21 06:51:39;;;;;;;9.25;3.33;;;;;;;12.43;100.00;98782.94;5071205;28;20059;-65
2023/10/21 06:54:27;;;;;;;7.22;3.17;;;;;;;12.43;100.00;98783.72;5073920;28;20087;-66
2023/10/21 06:57:20;;;;;;;12.27;3.60;;;;;;;12.46;100.00;98787.72;5072759;28;20110;-66
2023/10/21 07:00:10;;;;;;;6.82;2.97;;;;;;;12.49;100.00;98798.00;5072924;28;20053;-65
2023/10/21 07:02:58;;;;;;;9.38;3.25;;;;;;;12.51;100.00;98798.47;5071257;28;20051;-65
2023/10/21 07:05:47;;;;;;;11.57;3.40;;;;;;;12.53;100.00;98793.47;5072463;28;20041;-66
2023/10/21 07:08:35;;;;;;;8.82;2.90;;;;;;;12.56;100.00;98814.69;5059910;28;20080;-65
2023/10/21 07:11:24;;;;;;;11.07;2.70;;;;;;;12.57;100.00;98811.59;5073598;28;20047;-65
2023/10/21 07:14:12;;;;;;;8.05;2.70;;;;;;;12.60;100.00;98820.25;5073533;28;20040;-64
2023/10/21 07:17:00;;;;;;;6.00;2.70;;;;;;;12.61;100.00;98830.88;5072949;28;20412;-64
2023/10/21 07:19:49;;;;;;;5.68;2.60;;;;;;;12.62;100.00;98835.19;5071534;28;20056;-66
2023/10/21 07:22:37;;;;;;;12.18;2.80;;;;;;;12.64;100.00;98843.88;5072905;28;20079;-65
2023/10/21 07:25:26;;;;;;;9.75;2.85;;;;;;;12.64;100.00;98848.53;5057255;28;20131;-66
2023/10/21 07:28:14;;;;;;;8.20;2.58;;;;;;;12.66;100.00;98857.22;5070459;28;20147;-65
2023/10/21 07:31:02;;;;;;;7.75;2.58;;;;;;;12.65;100.00;98861.06;5072455;28;20044;-66
2023/10/21 07:33:53;;;;;;;10.13;2.80;;;;;;;12.64;100.00;98879.38;5052206;28;20048;-65
2023/10/21 07:36:41;;;;;;;7.95;2.40;;;;;;;12.64;100.00;98879.38;5049710;28;20040;-67
2023/10/21 07:39:29;;;;;;;8.05;2.40;;;;;;;12.62;100.00;98887.09;5022277;28;20045;-65
2023/10/21 07:42:17;;;;;;;5.63;2.08;;;;;;;12.63;100.00;98891.47;5060176;28;20045;-65
2023/10/21 07:45:06;;;;;;;4.20;2.00;;;;;;;12.63;100.00;98902.38;5073136;28;20048;-65
2023/10/21 07:47:55;;;;;;;6.88;1.77;;;;;;;12.61;100.00;98920.25;5065935;28;20552;-63
2023/10/21 07:50:43;;;;;;;1.38;1.13;;;;;;;12.58;100.00;98938.88;5045900;28;20316;-62
2023/10/21 07:53:31;;;;;;;6.22;2.17;;;;;;;12.61;100.00;98944.81;5072061;28;20059;-63
2023/10/21 07:56:18;;;;;;;3.92;1.52;;;;;;;12.57;100.00;98958.31;5072244;28;20059;-63
2023/10/21 07:59:06;;;;;;;3.28;1.40;;;;;;;12.57;100.00;98952.84;5052574;28;20497;-63
2023/10/21 08:01:54;;;;;;;7.50;1.85;;;;;;;12.61;100.00;98958.50;5051950;28;20092;-62
2023/10/21 08:04:44;;;;;;;2.05;1.27;;;;;;;12.65;100.00;98967.63;5068349;28;20511;-63
2023/10/21 08:07:32;;;;;;;3.35;1.80;;;;;;;12.72;100.00;98976.09;5071541;28;20129;-64
2023/10/21 08:10:20;;;;;;;1.98;1.30;;;;;;;12.67;100.00;98988.00;5072689;28;20049;-63
2023/10/21 08:13:08;;;;;;;4.45;1.42;;;;;;;12.67;100.00;98993.47;5072520;28;20560;-64
2023/10/21 08:15:57;;;;;;;5.28;1.52;;;;;;;12.73;100.00;99003.13;4715819;28;10000561;-65
2023/10/21 08:18:45;;;;;;;3.88;1.60;;;;;;;12.77;100.00;99006.81;5049209;28;20618;-65
2023/10/21 08:21:33;;;;;;;1.27;1.17;;;;;;;12.75;100.00;99014.53;5047701;28;20136;-65
2023/10/21 08:24:22;;;;;;;5.63;1.58;;;;;;;12.78;100.00;99013.06;5052983;28;20049;-63
2023/10/21 08:27:11;;;;;;;4.13;1.17;;;;;;;12.80;100.00;99013.53;5043049;28;20150;-63
2023/10/21 08:29:59;;;;;;;5.82;1.63;;;;;;;12.82;100.00;99005.81;5067865;28;20053;-66
2023/10/21 08:32:48;;;;;;;2.17;0.95;;;;;;;12.83;100.00;99012.09;5073017;28;20121;-65
2023/10/21 08:35:36;;;;;;;4.40;1.65;;;;;;;12.86;100.00;99022.34;5053559;28;20095;-68
2023/10/21 08:38:24;;;;;;;4.00;1.63;;;;;;;12.98;100.00;99017.00;5026060;28;20041;-66
2023/10/21 08:41:13;;;;;;;3.92;1.40;;;;;;;13.00;100.00;99012.00;5051771;28;20049;-66
2023/10/21 08:44:01;;;;;;;3.30;1.50;;;;;;;12.96;100.00;99013.78;5071608;28;20174;-65
2023/10/21 08:46:51;;;;;;;3.05;1.20;;;;;;;12.94;100.00;99026.97;5055304;28;20099;-64
2023/10/21 08:49:41;;;;;;;3.75;1.40;;;;;;;12.98;100.00;99038.88;5045250;28;20262;-63
2023/10/21 08:52:32;;;;;;;4.65;1.52;;;;;;;12.99;100.00;99035.03;5069279;28;20098;-67
2023/10/21 08:55:24;;;;;;;4.57;1.42;;;;;;;13.05;100.00;99039.16;5057606;28;20158;-64
2023/10/21 08:58:12;;;;;;;4.03;1.20;;;;;;;13.07;100.00;99047.84;5056566;28;20106;-65
2023/10/21 09:01:01;;;;;;;6.80;1.92;;;;;;;13.15;100.00;99055.19;5070086;28;20123;-66
2023/10/21 09:03:50;;;;;;;2.70;1.33;;;;;;;13.15;100.00;99059.88;5058990;28;20044;-68
2023/10/21 09:06:54;;;;;;;3.35;1.42;;;;;;;13.16;100.00;99064.22;5054682;28;20049;-65
2023/10/21 09:09:42;;;;;;;2.97;1.38;;;;;;;13.15;100.00;99070.81;5054658;28;20394;-62
2023/10/21 09:12:30;;;;;;;5.10;1.58;;;;;;;13.14;100.00;99080.94;5069910;28;20062;-64
2023/10/21 09:15:21;;;;;;;4.45;1.45;;;;;;;13.18;100.00;99076.44;5074454;28;20389;-64
2023/10/21 09:18:10;;;;;;;6.18;1.67;;;;;;;13.18;100.00;99087.38;5060813;28;20409;-64
2023/10/21 09:20:59;;;;;;;2.97;1.55;;;;;;;13.19;100.00;99078.03;5060651;28;20036;-64
2023/10/21 09:23:51;;;;;;;5.00;1.80;;;;;;;13.19;100.00;99086.22;5056130;28;20386;-63
2023/10/21 09:26:40;;;;;;;4.15;1.50;;;;;;;13.19;100.00;99099.13;5073827;28;20053;-64
2023/10/21 09:29:29;;;;;;;4.97;1.92;;;;;;;13.21;100.00;99097.66;5039664;28;20484;-64
2023/10/21 09:32:28;;;;;;;5.40;1.83;;;;;;;13.26;100.00;99093.94;5053529;28;20122;-64
2023/10/21 09:35:30;;;;;;;3.97;1.40;;;;;;;13.27;100.00;99106.50;5040982;28;20060;-64
2023/10/21 09:38:20;;;;;;;6.15;1.90;;;;;;;13.27;100.00;99106.50;5074238;28;20055;-64
2023/10/21 09:41:08;;;;;;;6.82;1.70;;;;;;;13.28;100.00;99118.25;5074275;28;20421;-64
2023/10/21 09:43:59;;;;;;;5.35;1.65;;;;;;;13.32;100.00;99124.66;5058336;28;20090;-64
2023/10/21 09:46:47;;;;;;;2.13;1.48;;;;;;;13.42;100.00;99124.28;5055853;28;20048;-65
2023/10/21 09:49:38;;;;;;;5.32;1.65;;;;;;;13.43;100.00;99125.91;5071664;28;20076;-64
2023/10/21 09:52:34;;;;;;;6.72;2.00;;;;;;;13.42;100.00;99135.22;5059880;28;20036;-67
2023/10/21 09:55:28;;;;;;;4.43;1.58;;;;;;;13.40;100.00;99137.53;5074534;28;20175;-66
2023/10/21 09:58:16;;;;;;;5.07;2.00;;;;;;;13.39;100.00;99141.38;5071278;28;20420;-65
2023/10/21 10:01:05;;;;;;;6.85;2.05;;;;;;;13.41;100.00;99142.66;5059511;28;20079;-66
2023/10/21 10:03:55;;;;;;;3.67;1.90;;;;;;;13.43;100.00;99147.81;5046706;28;20067;-66
2023/10/21 10:06:44;;;;;;;4.47;1.70;;;;;;;13.43;100.00;99156.00;5063158;28;20056;-66
2023/10/21 10:09:36;;;;;;;5.15;1.80;;;;;;;13.45;100.00;99159.22;5071322;28;20053;-66
2023/10/21 10:12:32;;;;;;;4.97;1.92;;;;;;;13.46;100.00;99155.34;5045595;28;20049;-64
2023/10/21 10:15:39;;;;;;;3.73;1.53;;;;;;;13.48;100.00;99169.50;5059530;28;20045;-67
2023/10/21 10:18:29;;;;;;;8.38;2.50;;;;;;;13.53;100.00;99161.09;5072209;28;20407;-67
2023/10/21 10:21:18;;;;;;;7.07;2.00;;;;;;;13.57;100.00;99164.00;5058569;28;20044;-66
2023/10/21 10:24:07;;;;;;;6.63;1.70;;;;;;;13.56;100.00;99168.66;5046099;28;20040;-66
2023/10/21 10:26:55;;;;;;;7.65;2.38;;;;;;;13.57;100.00;99173.00;5066325;28;20056;-65
2023/10/21 10:29:46;;;;;;;4.32;1.80;;;;;;;13.58;100.00;99174.59;5076753;28;20040;-64
2023/10/21 10:32:43;;;;;;;7.72;1.90;;;;;;;13.58;100.00;99173.81;5075149;28;20111;-60
2023/10/21 10:35:37;;;;;;;6.75;1.80;;;;;;;13.61;100.00;99175.88;5077027;28;20056;-65
2023/10/21 10:38:31;;;;;;;9.55;2.08;;;;;;;13.68;100.00;99180.84;5061420;28;20041;-68
2023/10/21 10:41:19;;;;;;;7.30;2.17;;;;;;;13.69;100.00;99187.94;5055616;28;20108;-63
2023/10/21 10:44:07;;;;;;;7.43;2.33;;;;;;;13.74;100.00;99185.81;5061565;28;20539;-67
2023/10/21 10:46:55;;;;;;;8.40;2.40;;;;;;;13.76;100.00;99182.75;5070249;28;20076;-70
2023/10/21 10:50:00;;;;;;;8.40;2.10;;;;;;;13.81;100.00;99186.09;5032554;28;20480;-69
2023/10/21 10:52:48;;;;;;;5.03;2.20;;;;;;;13.84;100.00;99185.44;5058857;28;20049;-72
2023/10/21 10:55:36;;;;;;;6.60;1.92;;;;;;;13.89;100.00;99192.66;5071983;28;20308;-71
2023/10/21 10:58:28;;;;;;;5.75;2.03;;;;;;;13.92;100.00;99194.72;5017005;28;20064;-73
2023/10/21 11:01:21;;;;;;;5.55;2.30;;;;;;;13.99;100.00;99192.28;5074065;28;20056;-71
2023/10/21 11:04:09;;;;;;;6.05;2.20;;;;;;;14.02;100.00;99197.13;5060271;28;20040;-71
2023/10/21 11:06:57;;;;;;;11.27;2.58;;;;;;;13.99;100.00;99186.81;5072611;28;20053;-71
2023/10/21 11:09:46;;;;;;;9.07;2.83;;;;;;;14.01;100.00;99189.22;5052978;28;20045;-73
2023/10/21 11:12:34;;;;;;;7.00;2.30;;;;;;;14.03;100.00;99197.91;5052250;28;20509;-72
2023/10/21 11:15:23;;;;;;;9.38;2.97;;;;;;;14.02;100.00;99202.59;5062404;28;20048;-72
2023/10/21 11:18:13;;;;;;;5.03;1.98;;;;;;;14.03;100.00;99197.91;5068546;28;20041;-71
2023/10/21 11:21:01;;;;;;;10.13;3.03;;;;;;;14.05;100.00;99203.88;5054549;28;20052;-70
2023/10/21 11:23:50;;;;;;;8.88;2.63;;;;;;;14.03;100.00;99206.91;5056196;28;20492;-68
2023/10/21 11:26:39;;;;;;;8.20;2.50;;;;;;;14.07;100.00;99205.13;5072752;28;20051;-70
2023/10/21 11:29:27;;;;;;;9.00;2.25;;;;;;;14.07;100.00;99213.34;5071353;28;20515;-69
2023/10/21 11:32:15;;;;;;;9.68;2.72;;;;;;;14.11;100.00;99209.94;5057238;28;20082;-70
2023/10/21 11:35:13;;;;;;;8.45;2.20;;;;;;;14.22;100.00;99205.69;5050476;28;20056;-70
2023/10/21 11:38:02;;;;;;;9.43;2.67;;;;;;;14.16;100.00;99209.75;5059407;28;20385;-69
2023/10/21 11:40:50;;;;;;;8.13;2.53;;;;;;;14.12;100.00;99217.00;5070253;28;20416;-68
2023/10/21 11:43:45;;;;;;;7.82;2.50;;;;;;;14.10;100.00;99213.81;5056252;28;20135;-69
2023/10/21 11:46:33;;;;;;;7.35;2.42;;;;;;;14.09;100.00;99226.69;5057246;28;20056;-69
2023/10/21 11:49:23;;;;;;;6.25;2.38;;;;;;;14.09;100.00;99226.69;5070945;28;20049;-69
2023/10/21 11:52:12;;;;;;;9.57;2.67;;;;;;;14.06;100.00;99230.09;5039729;28;20041;-68
2023/10/21 12:23:07;;;;;;;9.40;2.47;;;;;;;14.23;100.00;99245.63;5051489;28;20052;-67
2023/10/21 12:41:25;;;;;;;15.20;2.97;;;;;;;14.53;100.00;99248.34;5069996;28;20049;-71
2023/10/21 12:44:14;;;;;;;12.75;3.60;;;;;;;14.54;100.00;99250.00;5077183;28;20079;-69
2023/10/21 12:47:05;;;;;;;11.00;2.88;;;;;;;14.51;100.00;99250.63;5076859;28;20044;-69
2023/10/21 12:49:56;;;;;;;6.78;2.05;;;;;;;14.53;100.00;99253.81;5063010;28;20102;-69
2023/10/21 12:52:45;;;;;;;10.30;3.22;;;;;;;14.57;99.83;99252.06;5074602;28;20048;-69
2023/10/21 12:55:35;;;;;;;10.93;3.03;;;;;;;14.60;100.00;99254.13;5043149;28;20044;-70
2023/10/21 12:58:23;;;;;;;11.35;2.72;;;;;;;14.62;99.57;99258.16;5042032;28;20049;-70
2023/10/21 13:01:15;;;;;;;11.00;2.92;;;;;;;14.62;99.32;99254.59;5043228;28;20574;-70
2023/10/21 13:04:04;;;;;;;8.23;2.70;;;;;;;14.67;100.00;99248.91;5071328;28;20063;-70
2023/10/21 13:06:53;;;;;;;11.00;3.45;;;;;;;14.65;98.30;99251.22;5074964;28;20048;-70
2023/10/21 13:09:42;;;;;;;12.57;2.90;;;;;;;14.65;98.82;99251.22;5075147;28;20123;-70
2023/10/21 13:12:31;;;;;;;16.10;3.25;;;;;;;14.65;99.28;99240.25;5072933;28;20051;-69
2023/10/21 13:15:19;;;;;;;12.70;3.05;;;;;;;14.65;98.65;99248.47;5027581;28;20056;-70
2023/10/21 13:18:07;;;;;;;12.60;3.13;;;;;;;14.61;97.52;99244.78;5053776;28;20493;-70
2023/10/21 13:20:56;;;;;;;11.00;3.22;;;;;;;14.60;98.02;99244.00;5055656;28;20056;-70
2023/10/21 13:23:44;;;;;;;11.50;3.17;;;;;;;14.59;96.51;99236.88;5046503;28;20600;-70
2023/10/21 13:26:32;;;;;;;12.57;3.22;;;;;;;14.57;96.86;99243.84;5081079;28;20043;-71
2023/10/21 13:29:24;;;;;;;15.40;3.35;;;;;;;14.56;95.84;99253.22;5063450;28;20059;-70
2023/10/21 13:32:12;;;;;;;13.63;3.20;;;;;;;14.53;94.75;99257.41;5075800;28;20036;-68
2023/10/21 13:35:00;;;;;;;14.05;3.60;;;;;;;14.52;94.85;99255.78;5060610;28;20044;-69
2023/10/21 13:37:49;;;;;;;13.80;3.13;;;;;;;14.51;94.72;99261.59;5074770;28;20056;-70
2023/10/21 13:40:40;;;;;;;14.82;3.67;;;;;;;14.48;95.63;99255.66;5060850;28;20476;-69
2023/10/21 13:43:28;;;;;;;14.30;3.47;;;;;;;14.48;96.04;99266.59;5075112;28;20519;-69
2023/10/21 13:46:16;;;;;;;12.82;3.80;;;;;;;14.48;96.36;99263.06;5044513;28;20051;-69
2023/10/21 13:49:09;;;;;;;16.02;3.53;;;;;;;14.47;96.06;99255.97;5076204;28;20041;-69